createdAt,value
2022-08-01T00:01:49.784Z,16.28
2022-08-01T00:04:16.485Z,15.96
2022-08-01T00:06:43.095Z,15.95
2022-08-01T00:09:09.801Z,15.92
2022-08-01T00:11:56.292Z,15.85
2022-08-01T00:14:32.542Z,15.99
2022-08-01T00:17:03.900Z,16.03
2022-08-01T00:19:34.001Z,16.19
2022-08-01T00:22:00.695Z,16.21
2022-08-01T00:24:27.739Z,16.12
2022-08-01T00:26:54.380Z,16.00
2022-08-01T00:30:09.765Z,15.88
2022-08-01T00:32:08.371Z,15.78
2022-08-01T00:34:35.307Z,15.81
2022-08-01T00:37:02.068Z,15.62
2022-08-01T00:39:28.745Z,15.56
2022-08-01T00:42:01.923Z,15.54
2022-08-01T00:44:28.610Z,15.50
2022-08-01T00:46:55.207Z,15.61
2022-08-01T00:49:21.995Z,15.52
2022-08-01T00:51:49.127Z,15.51
2022-08-01T00:54:17.041Z,15.46
2022-08-01T00:56:44.689Z,15.45
2022-08-01T00:59:13.362Z,15.47
2022-08-01T01:01:41.268Z,15.44
2022-08-01T01:04:14.037Z,15.45
2022-08-01T01:06:45.883Z,15.34
2022-08-01T01:09:16.449Z,15.20
2022-08-01T01:12:24.324Z,15.17
2022-08-01T01:14:59.814Z,15.24
2022-08-01T01:17:51.105Z,15.15
2022-08-01T01:20:21.239Z,15.21
2022-08-01T01:22:54.131Z,15.20
2022-08-01T01:25:42.335Z,15.16
2022-08-01T01:28:27.614Z,15.14
2022-08-01T01:30:56.731Z,15.06
2022-08-01T01:33:26.592Z,15.05
2022-08-01T01:36:02.385Z,14.77
2022-08-01T01:38:33.582Z,14.52
2022-08-01T01:41:01.630Z,14.39
2022-08-01T01:43:33.393Z,14.62
2022-08-01T01:46:01.901Z,14.64
2022-08-01T01:48:30.191Z,14.61
2022-08-01T01:50:58.048Z,14.67
2022-08-01T01:53:28.126Z,14.75
2022-08-01T01:55:57.285Z,14.68
2022-08-01T01:58:25.352Z,14.84
2022-08-01T02:00:54.179Z,14.82
2022-08-01T02:03:22.253Z,14.96
2022-08-01T02:05:49.731Z,14.87
2022-08-01T02:08:17.556Z,14.80
2022-08-01T02:10:46.039Z,14.92
2022-08-01T02:13:12.828Z,14.89
2022-08-01T02:15:59.304Z,14.93
2022-08-01T02:18:26.763Z,14.83
2022-08-01T02:20:55.824Z,14.91
2022-08-01T02:23:25.571Z,14.96
2022-08-01T02:26:09.968Z,14.99
2022-08-01T02:28:57.317Z,14.92
2022-08-01T02:31:24.311Z,14.84
2022-08-01T02:34:05.402Z,14.83
2022-08-01T02:36:34.860Z,14.81
2022-08-01T02:39:09.546Z,14.75
2022-08-01T02:41:44.957Z,14.72
2022-08-01T02:44:36.561Z,14.72
2022-08-01T02:47:04.459Z,14.60
2022-08-01T02:49:44.053Z,14.57
2022-08-01T02:52:18.813Z,14.50
2022-08-01T02:54:48.599Z,14.51
2022-08-01T02:57:17.829Z,14.52
2022-08-01T02:59:48.241Z,14.34
2022-08-01T03:02:16.605Z,14.38
2022-08-01T03:04:44.211Z,14.48
2022-08-01T03:07:12.334Z,14.49
2022-08-01T03:09:42.442Z,14.50
2022-08-01T03:12:30.158Z,14.29
2022-08-01T03:14:58.983Z,14.30
2022-08-01T03:17:28.643Z,14.26
2022-08-01T03:19:57.229Z,14.24
2022-08-01T03:22:27.087Z,14.26
2022-08-01T03:24:55.143Z,14.26
2022-08-01T03:27:23.832Z,14.21
2022-08-01T03:29:52.422Z,14.26
2022-08-01T03:32:20.474Z,14.21
2022-08-01T03:34:47.616Z,14.16
2022-08-01T03:38:14.852Z,14.15
2022-08-01T03:40:41.359Z,14.14
2022-08-01T03:43:39.787Z,14.11
2022-08-01T03:46:09.661Z,14.16
2022-08-01T03:48:40.803Z,14.13
2022-08-01T03:51:09.981Z,14.16
2022-08-01T03:53:40.782Z,14.14
2022-08-01T03:56:11.329Z,14.10
2022-08-01T03:58:40.432Z,14.08
2022-08-01T04:01:07.820Z,13.92
2022-08-01T04:03:43.359Z,13.92
2022-08-01T04:06:10.170Z,13.99
2022-08-01T04:08:40.962Z,14.19
2022-08-01T04:11:10.086Z,14.33
2022-08-01T04:13:38.265Z,14.41
2022-08-01T04:16:05.656Z,14.25
2022-08-01T04:18:32.276Z,14.47
2022-08-01T04:20:59.056Z,14.40
2022-08-01T04:23:28.609Z,14.35
2022-08-01T04:25:57.074Z,14.18
2022-08-01T04:28:25.523Z,14.11
2022-08-01T04:30:59.749Z,14.10
2022-08-01T04:33:29.671Z,14.02
2022-08-01T04:36:01.583Z,14.02
2022-08-01T04:38:33.903Z,14.14
2022-08-01T04:41:09.378Z,14.11
2022-08-01T04:43:37.746Z,14.12
2022-08-01T04:46:05.077Z,14.16
2022-08-01T04:48:33.856Z,14.28
2022-08-01T04:51:01.088Z,14.28
2022-08-01T04:53:27.737Z,14.24
2022-08-01T04:55:54.738Z,14.20
2022-08-01T04:58:21.375Z,14.33
2022-08-01T05:00:48.990Z,14.43
2022-08-01T05:03:15.667Z,14.44
2022-08-01T05:05:42.495Z,14.45
2022-08-01T05:08:09.155Z,14.50
2022-08-01T05:10:35.831Z,14.60
2022-08-01T05:13:02.577Z,14.76
2022-08-01T05:15:29.207Z,14.95
2022-08-01T05:17:56.070Z,15.09
2022-08-01T05:20:22.703Z,15.40
2022-08-01T05:22:49.451Z,15.44
2022-08-01T05:25:19.877Z,15.61
2022-08-01T05:27:47.560Z,15.63
2022-08-01T05:30:16.010Z,15.83
2022-08-01T05:32:43.100Z,15.79
2022-08-01T05:35:09.992Z,15.78
2022-08-01T05:37:36.679Z,15.85
2022-08-01T05:40:04.146Z,15.89
2022-08-01T05:42:31.102Z,15.96
2022-08-01T05:44:57.745Z,16.05
2022-08-01T05:47:24.497Z,16.37
2022-08-01T05:49:51.135Z,16.51
2022-08-01T05:52:17.756Z,16.56
2022-08-01T05:54:44.425Z,16.84
2022-08-01T05:57:11.281Z,17.13
2022-08-01T05:59:39.140Z,17.41
2022-08-01T06:02:06.193Z,17.23
2022-08-01T06:04:33.024Z,17.16
2022-08-01T06:06:59.669Z,17.12
2022-08-01T06:09:26.409Z,17.46
2022-08-01T06:11:53.083Z,17.89
2022-08-01T06:14:19.825Z,17.92
2022-08-01T06:16:46.470Z,17.79
2022-08-01T06:19:13.177Z,18.21
2022-08-01T06:21:39.876Z,18.62
2022-08-01T06:24:06.653Z,18.53
2022-08-01T06:26:33.345Z,18.66
2022-08-01T06:28:59.995Z,18.66
2022-08-01T06:31:30.459Z,18.88
2022-08-01T06:33:58.447Z,19.07
2022-08-01T06:36:25.158Z,19.13
2022-08-01T06:38:51.954Z,19.06
2022-08-01T06:41:18.674Z,19.47
2022-08-01T06:43:45.339Z,19.38
2022-08-01T06:46:12.111Z,19.49
2022-08-01T06:48:38.748Z,19.24
2022-08-01T06:51:05.394Z,19.53
2022-08-01T06:53:36.361Z,19.55
2022-08-01T06:56:03.682Z,20.07
2022-08-01T06:58:30.932Z,20.49
2022-08-01T07:00:58.746Z,20.67
2022-08-01T07:03:26.465Z,20.30
2022-08-01T07:05:54.670Z,20.46
2022-08-01T07:08:22.021Z,20.76
2022-08-01T07:10:48.702Z,21.01
2022-08-01T07:13:15.499Z,21.05
2022-08-01T07:15:42.143Z,20.89
2022-08-01T07:18:08.784Z,21.04
2022-08-01T07:20:50.272Z,21.07
2022-08-01T07:23:19.004Z,21.32
2022-08-01T07:25:50.832Z,21.67
2022-08-01T07:28:19.738Z,21.85
2022-08-01T07:30:46.452Z,21.87
2022-08-01T07:33:13.652Z,22.17
2022-08-01T07:35:40.597Z,22.46
2022-08-01T07:38:12.565Z,22.46
2022-08-01T07:40:39.584Z,22.43
2022-08-01T07:43:06.231Z,22.68
2022-08-01T07:45:32.874Z,22.81
2022-08-01T07:48:04.489Z,23.23
2022-08-01T07:50:38.229Z,22.99
2022-08-01T07:53:05.078Z,22.91
2022-08-01T07:55:31.735Z,22.72
2022-08-01T07:57:58.697Z,23.07
2022-08-01T08:00:25.795Z,22.96
2022-08-01T08:02:52.414Z,22.89
2022-08-01T08:05:58.245Z,22.95
2022-08-01T08:08:06.612Z,23.46
2022-08-01T08:10:34.508Z,23.40
2022-08-01T08:13:01.341Z,23.36
2022-08-01T08:15:28.516Z,23.32
2022-08-01T08:17:55.554Z,23.45
2022-08-01T08:20:22.531Z,23.36
2022-08-01T08:22:49.421Z,23.67
2022-08-01T08:25:16.185Z,23.96
2022-08-01T08:27:43.081Z,24.05
2022-08-01T08:30:10.245Z,24.18
2022-08-01T08:32:37.104Z,24.02
2022-08-01T08:35:04.320Z,24.06
2022-08-01T08:37:31.587Z,24.24
2022-08-01T08:40:07.292Z,23.89
2022-08-01T08:42:35.623Z,23.93
2022-08-01T08:45:02.944Z,23.94
2022-08-01T08:47:36.330Z,23.96
2022-08-01T08:50:03.578Z,24.00
2022-08-01T08:52:32.036Z,24.10
2022-08-01T08:54:59.772Z,24.06
2022-08-01T08:57:27.005Z,23.94
2022-08-01T08:59:53.778Z,23.83
2022-08-01T09:02:21.016Z,23.94
2022-08-01T09:04:50.431Z,23.76
2022-08-01T09:07:17.105Z,23.71
2022-08-01T09:09:43.742Z,23.72
2022-08-01T09:12:10.878Z,23.85
2022-08-01T09:14:46.097Z,23.55
2022-08-01T09:17:12.758Z,23.51
2022-08-01T09:19:45.363Z,23.61
2022-08-01T09:22:15.343Z,23.59
2022-08-01T09:24:42.518Z,23.50
2022-08-01T09:27:22.912Z,23.50
2022-08-01T09:30:01.907Z,23.45
2022-08-01T09:32:35.079Z,23.68
2022-08-01T09:35:36.505Z,23.56
2022-08-01T09:38:18.692Z,23.51
2022-08-01T09:40:49.507Z,23.57
2022-08-01T09:43:16.375Z,23.43
2022-08-01T09:45:45.731Z,23.68
2022-08-01T09:48:16.164Z,23.81
2022-08-01T09:50:48.813Z,23.92
2022-08-01T09:53:30.238Z,23.91
2022-08-01T09:56:10.227Z,23.92
2022-08-01T09:59:01.672Z,24.08
2022-08-01T10:01:42.421Z,24.06
2022-08-01T10:04:12.591Z,24.32
2022-08-01T10:06:45.401Z,24.19
2022-08-01T10:09:14.225Z,24.09
2022-08-01T10:11:43.372Z,23.94
2022-08-01T10:14:12.572Z,24.21
2022-08-01T10:16:44.702Z,24.37
2022-08-01T10:19:15.424Z,24.35
2022-08-01T10:21:56.619Z,24.39
2022-08-01T10:24:27.734Z,24.51
2022-08-01T10:27:08.236Z,24.32
2022-08-01T10:30:05.552Z,24.51
2022-08-01T10:32:36.812Z,24.64
2022-08-01T10:35:07.512Z,24.50
2022-08-01T10:37:52.164Z,24.51
2022-08-01T10:40:30.377Z,24.74
2022-08-01T10:42:58.045Z,24.64
2022-08-01T10:45:24.901Z,24.61
2022-08-01T10:48:20.574Z,24.55
2022-08-01T10:50:51.201Z,24.56
2022-08-01T10:53:30.844Z,24.66
2022-08-01T10:55:59.377Z,24.66
2022-08-01T10:58:31.101Z,24.68
2022-08-01T11:01:25.867Z,25.02
2022-08-01T11:04:04.657Z,25.16
2022-08-01T11:06:33.954Z,25.39
2022-08-01T11:09:23.599Z,25.18
2022-08-01T11:12:07.766Z,25.59
2022-08-01T11:14:55.236Z,25.18
2022-08-01T11:17:37.896Z,25.14
2022-08-01T11:20:14.084Z,25.38
2022-08-01T11:22:59.521Z,25.24
2022-08-01T11:26:06.634Z,25.14
2022-08-01T11:28:32.098Z,25.19
2022-08-01T11:31:07.905Z,25.47
2022-08-01T11:33:40.736Z,25.91
2022-08-01T11:36:14.577Z,25.77
2022-08-01T11:38:48.578Z,26.08
2022-08-01T11:41:18.282Z,26.19
2022-08-01T11:44:00.097Z,26.14
2022-08-01T11:46:48.601Z,26.20
2022-08-01T11:49:31.656Z,26.41
2022-08-01T11:52:02.016Z,26.28
2022-08-01T11:54:34.730Z,26.56
2022-08-01T11:57:06.886Z,26.86
2022-08-01T12:00:03.864Z,26.62
2022-08-01T12:02:35.313Z,26.59
2022-08-01T12:05:05.590Z,26.67
2022-08-01T12:07:36.351Z,27.04
2022-08-01T12:10:12.044Z,27.23
2022-08-01T12:13:01.054Z,27.49
2022-08-01T12:15:32.390Z,27.35
2022-08-01T12:18:01.437Z,27.00
2022-08-01T12:20:31.902Z,27.04
2022-08-01T12:23:03.968Z,27.14
2022-08-01T12:25:30.973Z,27.31
2022-08-01T12:28:04.723Z,27.82
2022-08-01T12:30:32.916Z,27.67
2022-08-01T12:32:59.740Z,27.41
2022-08-01T12:35:29.080Z,27.51
2022-08-01T12:38:07.788Z,27.44
2022-08-01T12:40:45.378Z,27.57
2022-08-01T12:43:26.829Z,27.40
2022-08-01T12:45:57.310Z,27.76
2022-08-01T12:48:25.978Z,27.97
2022-08-01T12:50:53.781Z,27.67
2022-08-01T12:53:21.630Z,27.77
2022-08-01T12:55:58.824Z,28.20
2022-08-01T12:58:32.854Z,28.13
2022-08-01T13:01:08.211Z,28.11
2022-08-01T13:03:35.020Z,27.61
2022-08-01T13:06:01.909Z,27.08
2022-08-01T13:08:35.095Z,27.24
2022-08-01T13:11:06.771Z,27.65
2022-08-01T13:13:46.457Z,27.69
2022-08-01T13:16:16.280Z,27.45
2022-08-01T13:18:59.844Z,27.52
2022-08-01T13:21:28.619Z,27.59
2022-08-01T13:24:10.414Z,27.61
2022-08-01T13:26:55.138Z,27.38
2022-08-01T13:29:23.653Z,27.71
2022-08-01T13:31:50.727Z,28.07
2022-08-01T13:34:17.889Z,27.93
2022-08-01T13:36:49.452Z,27.62
2022-08-01T13:39:16.584Z,27.99
2022-08-01T13:41:43.906Z,27.40
2022-08-01T13:44:10.860Z,27.99
2022-08-01T13:46:38.878Z,27.81
2022-08-01T13:49:16.196Z,27.93
2022-08-01T13:51:43.235Z,28.38
2022-08-01T13:54:09.955Z,28.77
2022-08-01T13:56:36.683Z,28.41
2022-08-01T13:59:03.506Z,28.19
2022-08-01T14:01:34.169Z,28.12
2022-08-01T14:04:02.029Z,28.08
2022-08-01T14:06:28.799Z,27.81
2022-08-01T14:08:55.417Z,28.16
2022-08-01T14:11:22.318Z,27.95
2022-08-01T14:13:48.958Z,28.21
2022-08-01T14:16:16.228Z,28.48
2022-08-01T14:18:44.516Z,28.48
2022-08-01T14:21:11.464Z,28.41
2022-08-01T14:23:38.412Z,28.58
2022-08-01T14:26:09.942Z,28.45
2022-08-01T14:28:40.069Z,28.42
2022-08-01T14:31:06.957Z,28.39
2022-08-01T14:33:34.285Z,28.77
2022-08-01T14:36:06.463Z,29.08
2022-08-01T14:38:47.997Z,29.15
2022-08-01T14:41:17.912Z,29.39
2022-08-01T14:43:45.272Z,29.39
2022-08-01T14:46:12.416Z,28.84
2022-08-01T14:48:39.059Z,28.74
2022-08-01T14:51:05.742Z,28.74
2022-08-01T14:53:36.150Z,28.21
2022-08-01T14:56:04.775Z,28.31
2022-08-01T14:58:31.502Z,28.59
2022-08-01T15:00:59.437Z,28.10
2022-08-01T15:03:26.672Z,27.97
2022-08-01T15:05:53.559Z,28.11
2022-08-01T15:08:20.216Z,28.13
2022-08-01T15:10:46.954Z,28.10
2022-08-01T15:13:13.623Z,28.12
2022-08-01T15:15:40.273Z,28.30
2022-08-01T15:18:06.952Z,28.41
2022-08-01T15:20:33.594Z,28.24
2022-08-01T15:23:00.227Z,28.26
2022-08-01T15:25:27.030Z,28.56
2022-08-01T15:28:11.206Z,28.23
2022-08-01T15:30:38.262Z,27.65
2022-08-01T15:33:04.939Z,27.70
2022-08-01T15:35:32.488Z,27.83
2022-08-01T15:37:59.206Z,28.12
2022-08-01T15:40:26.171Z,27.87
2022-08-01T15:42:52.846Z,28.16
2022-08-01T15:45:53.367Z,28.37
2022-08-01T15:48:06.524Z,28.26
2022-08-01T15:50:33.497Z,27.65
2022-08-01T15:53:00.125Z,27.69
2022-08-01T15:55:26.873Z,28.12
2022-08-01T15:57:53.543Z,28.35
2022-08-01T16:00:20.303Z,27.99
2022-08-01T16:02:47.340Z,28.00
2022-08-01T16:05:14.215Z,28.33
2022-08-01T16:07:59.872Z,28.08
2022-08-01T16:10:28.465Z,28.32
2022-08-01T16:12:55.107Z,28.20
2022-08-01T16:15:21.997Z,28.18
2022-08-01T16:17:48.620Z,28.00
2022-08-01T16:20:15.426Z,28.15
2022-08-01T16:22:42.097Z,27.84
2022-08-01T16:25:09.468Z,28.16
2022-08-01T16:27:38.946Z,28.14
2022-08-01T16:30:06.442Z,27.67
2022-08-01T16:32:35.951Z,27.74
2022-08-01T16:35:06.719Z,28.12
2022-08-01T16:37:34.024Z,28.37
2022-08-01T16:40:00.726Z,28.08
2022-08-01T16:42:27.620Z,28.40
2022-08-01T16:44:54.668Z,28.75
2022-08-01T16:47:21.337Z,28.06
2022-08-01T16:49:48.123Z,27.94
2022-08-01T16:52:16.256Z,27.87
2022-08-01T16:54:42.880Z,27.89
2022-08-01T16:57:09.585Z,27.87
2022-08-01T16:59:41.304Z,28.39
2022-08-01T17:02:09.907Z,28.25
2022-08-01T17:04:36.704Z,28.24
2022-08-01T17:07:03.648Z,27.94
2022-08-01T17:09:30.468Z,28.08
2022-08-01T17:11:57.134Z,27.85
2022-08-01T17:14:23.828Z,27.63
2022-08-01T17:16:50.451Z,27.28
2022-08-01T17:19:17.082Z,26.86
2022-08-01T17:21:43.724Z,27.23
2022-08-01T17:24:11.627Z,27.39
2022-08-01T17:26:43.412Z,26.58
2022-08-01T17:29:10.040Z,26.37
2022-08-01T17:31:36.670Z,26.31
2022-08-01T17:34:03.303Z,26.65
2022-08-01T17:36:29.972Z,26.80
2022-08-01T17:38:58.295Z,26.64
2022-08-01T17:41:25.019Z,26.42
2022-08-01T17:43:51.649Z,26.14
2022-08-01T17:46:18.291Z,26.43
2022-08-01T17:48:45.082Z,26.20
2022-08-01T17:51:11.866Z,26.17
2022-08-01T17:53:38.501Z,26.16
2022-08-01T17:56:25.036Z,25.59
2022-08-01T17:58:52.373Z,25.53
2022-08-01T18:01:19.462Z,25.27
2022-08-01T18:03:46.570Z,25.34
2022-08-01T18:06:15.645Z,25.21
2022-08-01T18:08:43.408Z,25.24
2022-08-01T18:11:11.161Z,25.29
2022-08-01T18:13:40.270Z,25.30
2022-08-01T18:16:08.807Z,25.20
2022-08-01T18:18:35.667Z,25.44
2022-08-01T18:21:02.667Z,25.24
2022-08-01T18:23:29.407Z,25.01
2022-08-01T18:25:56.064Z,24.80
2022-08-01T18:28:33.731Z,25.22
2022-08-01T18:31:02.393Z,25.16
2022-08-01T18:33:29.027Z,24.97
2022-08-01T18:35:55.671Z,25.17
2022-08-01T18:38:29.043Z,24.95
2022-08-01T18:40:56.418Z,24.96
2022-08-01T18:43:23.078Z,24.31
2022-08-01T18:45:49.789Z,24.43
2022-08-01T18:48:16.462Z,24.36
2022-08-01T18:50:43.129Z,24.43
2022-08-01T18:53:09.745Z,24.29
2022-08-01T18:55:36.475Z,24.39
2022-08-01T18:58:03.379Z,24.30
2022-08-01T19:00:30.368Z,24.36
2022-08-01T19:02:57.059Z,24.19
2022-08-01T19:05:23.671Z,24.04
2022-08-01T19:08:05.955Z,24.08
2022-08-01T19:10:35.737Z,24.01
2022-08-01T19:13:02.436Z,23.94
2022-08-01T19:15:29.158Z,23.89
2022-08-01T19:17:55.757Z,24.13
2022-08-01T19:20:22.501Z,24.22
2022-08-01T19:22:49.233Z,24.39
2022-08-01T19:25:15.887Z,24.45
2022-08-01T19:27:47.124Z,24.45
2022-08-01T19:30:15.628Z,24.51
2022-08-01T19:32:43.314Z,24.51
2022-08-01T19:35:13.541Z,24.45
2022-08-01T19:37:43.373Z,24.45
2022-08-01T19:40:11.349Z,24.47
2022-08-01T19:42:55.741Z,24.43
2022-08-01T19:45:22.529Z,24.37
2022-08-01T19:47:56.619Z,24.40
2022-08-01T19:50:28.531Z,24.15
2022-08-01T19:53:02.704Z,23.93
2022-08-01T19:55:30.980Z,24.01
2022-08-01T19:58:25.818Z,23.84
2022-08-01T20:00:45.591Z,23.86
2022-08-01T20:03:15.412Z,23.81
2022-08-01T20:05:42.524Z,23.75
2022-08-01T20:08:09.437Z,23.66
2022-08-01T20:10:36.636Z,23.64
2022-08-01T20:13:03.836Z,23.59
2022-08-01T20:15:30.615Z,23.49
2022-08-01T20:17:58.220Z,23.41
2022-08-01T20:20:25.913Z,23.25
2022-08-01T20:22:56.763Z,23.21
2022-08-01T20:25:32.139Z,23.19
2022-08-01T20:28:10.110Z,23.17
2022-08-01T20:30:37.704Z,23.28
2022-08-01T20:33:07.079Z,23.29
2022-08-01T20:35:51.866Z,23.09
2022-08-01T20:38:27.666Z,23.01
2022-08-01T20:40:56.514Z,23.01
2022-08-01T20:43:23.125Z,22.97
2022-08-01T20:45:49.878Z,22.89
2022-08-01T20:48:17.069Z,22.91
2022-08-01T20:50:53.447Z,22.72
2022-08-01T20:53:25.353Z,22.64
2022-08-01T20:56:04.507Z,22.72
2022-08-01T20:58:46.207Z,22.72
2022-08-01T21:01:20.500Z,22.77
2022-08-01T21:04:04.570Z,22.60
2022-08-01T21:06:37.517Z,23.00
2022-08-01T21:09:06.009Z,22.93
2022-08-01T21:11:46.481Z,22.77
2022-08-01T21:14:18.626Z,22.76
2022-08-01T21:16:52.313Z,22.82
2022-08-01T21:19:27.808Z,22.56
2022-08-01T21:22:12.122Z,22.75
2022-08-01T21:24:58.002Z,22.54
2022-08-01T21:27:33.112Z,22.44
2022-08-01T21:30:02.922Z,22.41
2022-08-01T21:32:33.595Z,22.37
2022-08-01T21:35:01.208Z,22.06
2022-08-01T21:37:29.454Z,21.96
2022-08-01T21:39:58.369Z,21.93
2022-08-01T21:42:27.585Z,22.00
2022-08-01T21:44:55.725Z,21.99
2022-08-01T21:47:23.061Z,22.08
2022-08-01T21:49:49.801Z,22.03
2022-08-01T21:52:17.461Z,22.08
2022-08-01T21:54:53.313Z,22.09
2022-08-01T21:57:55.461Z,22.13
2022-08-01T22:00:25.555Z,22.06
2022-08-01T22:03:17.015Z,21.91
2022-08-01T22:05:51.453Z,21.88
2022-08-01T22:08:47.440Z,21.89
2022-08-01T22:11:19.989Z,21.82
2022-08-01T22:13:46.750Z,21.74
2022-08-01T22:16:14.683Z,21.56
2022-08-01T22:18:41.757Z,21.40
2022-08-01T22:21:09.578Z,21.44
2022-08-01T22:23:37.338Z,21.58
2022-08-01T22:26:09.126Z,21.64
2022-08-01T22:28:37.318Z,21.65
2022-08-01T22:31:04.217Z,21.59
2022-08-01T22:33:35.109Z,21.44
2022-08-01T22:36:03.488Z,21.44
2022-08-01T22:38:30.124Z,21.35
2022-08-01T22:42:01.815Z,21.39
2022-08-01T22:44:27.012Z,21.51
2022-08-01T22:47:03.862Z,21.40
2022-08-01T22:50:01.315Z,21.30
2022-08-01T22:52:30.331Z,21.23
2022-08-01T22:55:05.137Z,21.06
2022-08-01T22:57:50.287Z,21.10
2022-08-01T23:00:18.154Z,21.09
2022-08-01T23:02:54.625Z,21.07
2022-08-01T23:05:23.475Z,21.01
2022-08-01T23:07:57.537Z,20.90
2022-08-01T23:10:26.424Z,20.84
2022-08-01T23:12:55.058Z,20.86
2022-08-01T23:15:23.324Z,20.89
2022-08-01T23:17:50.837Z,20.97
2022-08-01T23:20:18.145Z,20.92
2022-08-01T23:22:45.210Z,20.89
2022-08-01T23:25:16.309Z,20.83
2022-08-01T23:27:54.286Z,20.84
2022-08-01T23:30:33.132Z,20.80
2022-08-01T23:33:00.036Z,20.74
2022-08-01T23:35:27.394Z,20.78
2022-08-01T23:37:54.804Z,20.77
2022-08-01T23:40:25.903Z,20.62
2022-08-01T23:42:55.569Z,20.58
2022-08-01T23:45:22.717Z,20.50
2022-08-01T23:47:49.674Z,20.41
2022-08-01T23:50:16.355Z,20.55
2022-08-01T23:52:48.470Z,20.68
2022-08-01T23:55:16.850Z,20.64
2022-08-01T23:57:44.381Z,20.58
